Time;durP1;ratioP1;P1;durP2;ratioP2;P2;SDS_P1;SDS_P2;PMS_P1;PMS_P2;Temp;Humidity;BMP_temperature;BMP_pressure;BME280_temperature;BME280_humidity;BME280_pressure;Samples;Min_cycle;Max_cycle;Signal;HPM_P1;HPM_P2
2023/04/21 00:00:08;;;;;;;24.37;19.03;;;9.60;99.90;;;;;;5018264;28;20194;-78
2023/04/21 00:02:38;;;;;;;27.80;19.60;;;9.70;99.90;;;;;;5014517;28;20218;-79
2023/04/21 00:05:08;;;;;;;22.63;17.93;;;9.70;99.90;;;;;;5013963;28;20556;-78
2023/04/21 00:07:34;;;;;;;24.00;18.33;;;9.60;99.90;;;;;;5021102;28;20433;-76
2023/04/21 00:09:59;;;;;;;25.13;19.50;;;9.60;99.90;;;;;;5017988;28;20903;-78
2023/04/21 00:12:25;;;;;;;23.10;18.87;;;9.50;99.90;;;;;;5020438;28;20417;-79
2023/04/21 00:14:50;;;;;;;23.27;17.97;;;9.80;99.90;;;;;;5016862;28;20183;-78
2023/04/21 00:17:16;;;;;;;24.40;18.53;;;9.60;99.90;;;;;;5014047;28;20198;-78
2023/04/21 00:19:42;;;;;;;26.63;19.57;;;9.50;99.90;;;;;;5020034;28;20224;-78
2023/04/21 00:22:13;;;;;;;23.60;18.93;;;9.60;99.90;;;;;;4997932;28;20619;-79
2023/04/21 00:24:39;;;;;;;26.50;19.50;;;9.50;99.90;;;;;;5030644;28;20221;-79
2023/04/21 00:27:05;;;;;;;25.80;20.20;;;9.50;99.90;;;;;;5019323;28;20426;-79
2023/04/21 00:29:30;;;;;;;24.03;18.93;;;9.70;99.90;;;;;;5020766;28;20923;-78
2023/04/21 00:31:56;;;;;;;26.90;20.17;;;9.50;99.90;;;;;;5016504;28;20229;-78
2023/04/21 00:34:22;;;;;;;26.07;19.40;;;9.80;99.90;;;;;;5013779;28;20201;-77
2023/04/21 00:36:47;;;;;;;22.40;18.00;;;9.60;99.90;;;;;;5019084;28;20202;-78
2023/04/21 00:39:13;;;;;;;25.97;20.57;;;9.60;99.90;;;;;;5018742;28;20199;-77
2023/04/21 00:41:39;;;;;;;25.20;19.87;;;9.60;99.90;;;;;;5017685;28;20758;-78
2023/04/21 00:44:08;;;;;;;25.70;18.30;;;9.60;99.90;;;;;;5020922;28;20324;-78
2023/04/21 00:46:35;;;;;;;22.30;19.40;;;9.60;99.90;;;;;;5016373;28;20591;-79
2023/04/21 00:49:06;;;;;;;26.07;18.80;;;9.50;99.90;;;;;;5016478;28;20426;-79
2023/04/21 00:51:33;;;;;;;25.63;20.13;;;9.50;99.90;;;;;;5010739;28;20434;-79
2023/04/21 00:54:02;;;;;;;26.87;19.27;;;9.50;99.90;;;;;;5023848;28;20425;-79
2023/04/21 00:56:30;;;;;;;23.77;19.63;;;9.50;99.90;;;;;;5000700;28;20938;-77
2023/04/21 00:58:58;;;;;;;25.77;19.27;;;9.40;99.90;;;;;;5010708;28;20444;-78
2023/04/21 01:01:24;;;;;;;30.27;20.93;;;9.60;99.90;;;;;;5017196;28;20768;-78
2023/04/21 01:03:50;;;;;;;25.57;19.33;;;9.80;99.90;;;;;;5012140;28;20465;-77
2023/04/21 01:06:17;;;;;;;29.97;21.70;;;9.80;99.90;;;;;;5020401;28;20200;-79
2023/04/21 01:08:45;;;;;;;27.53;20.47;;;9.70;99.90;;;;;;5014007;28;20422;-76
2023/04/21 01:11:14;;;;;;;28.70;21.60;;;9.50;99.90;;;;;;5016673;28;20448;-78
2023/04/21 01:13:40;;;;;;;26.90;19.13;;;9.60;99.90;;;;;;5013689;28;20564;-78
2023/04/21 01:16:09;;;;;;;30.10;21.37;;;9.50;99.90;;;;;;5016182;28;20536;-77
2023/04/21 01:18:35;;;;;;;26.10;20.60;;;9.50;99.90;;;;;;5015246;28;20187;-79
2023/04/21 01:21:03;;;;;;;27.73;20.80;;;9.60;99.90;;;;;;5019457;28;20545;-78
2023/04/21 01:23:28;;;;;;;26.70;19.93;;;9.60;99.90;;;;;;5013501;28;20462;-78
2023/04/21 01:25:54;;;;;;;30.33;21.30;;;9.60;99.90;;;;;;5020760;28;20471;-78
2023/04/21 01:28:24;;;;;;;27.97;20.33;;;9.50;99.90;;;;;;5017547;28;20656;-77
2023/04/21 01:30:50;;;;;;;24.47;19.17;;;9.50;99.90;;;;;;5013440;28;20493;-78
2023/04/21 01:33:17;;;;;;;26.50;20.30;;;9.50;99.90;;;;;;5011461;28;20429;-77
2023/04/21 01:35:43;;;;;;;25.40;20.07;;;9.50;99.90;;;;;;5017835;28;20417;-79
2023/04/21 01:38:09;;;;;;;28.73;20.60;;;9.60;99.90;;;;;;5015055;28;20536;-78
2023/04/21 01:40:35;;;;;;;27.00;20.50;;;9.40;99.90;;;;;;5022297;28;20577;-76
2023/04/21 01:43:02;;;;;;;30.00;21.10;;;9.50;99.90;;;;;;5012774;28;20227;-78
2023/04/21 01:45:29;;;;;;;25.80;20.10;;;9.50;99.90;;;;;;5019583;28;20475;-76
2023/04/21 01:47:55;;;;;;;31.23;20.37;;;9.50;99.90;;;;;;5012540;28;20419;-77
2023/04/21 01:50:21;;;;;;;26.30;19.80;;;9.50;99.90;;;;;;5014693;28;20752;-77
2023/04/21 01:52:46;;;;;;;26.83;21.23;;;9.50;99.90;;;;;;5014407;28;20422;-78
2023/04/21 01:55:12;;;;;;;28.50;22.13;;;9.60;99.90;;;;;;5015848;28;20241;-77
2023/04/21 01:57:38;;;;;;;30.00;21.27;;;9.50;99.90;;;;;;5015642;28;20191;-78
2023/04/21 02:00:04;;;;;;;29.10;21.93;;;9.50;99.90;;;;;;5017742;28;20294;-77
2023/04/21 02:02:30;;;;;;;30.13;20.60;;;9.50;99.90;;;;;;5014706;28;20558;-78
2023/04/21 02:04:55;;;;;;;29.07;21.63;;;9.50;99.90;;;;;;4996174;28;20465;-78
2023/04/21 02:07:21;;;;;;;27.23;21.17;;;9.50;99.90;;;;;;5017391;28;20248;-76
2023/04/21 02:09:47;;;;;;;28.83;22.13;;;9.50;99.90;;;;;;5022632;28;20605;-78
2023/04/21 02:12:12;;;;;;;29.80;21.50;;;9.70;99.90;;;;;;5015988;28;20242;-77
2023/04/21 02:14:38;;;;;;;29.17;21.73;;;9.60;99.90;;;;;;5017375;28;20190;-77
2023/04/21 02:17:03;;;;;;;27.33;21.37;;;9.40;99.90;;;;;;5009400;28;20257;-77
2023/04/21 02:19:30;;;;;;;31.67;22.30;;;9.50;99.90;;;;;;5017515;28;20609;-78
2023/04/21 02:21:55;;;;;;;27.53;21.43;;;9.50;99.90;;;;;;5012681;28;20210;-77
2023/04/21 02:24:21;;;;;;;28.20;21.83;;;9.30;99.90;;;;;;5013980;28;20469;-78
2023/04/21 02:26:47;;;;;;;31.97;22.20;;;9.50;99.90;;;;;;5013594;28;20179;-78
2023/04/21 02:29:13;;;;;;;27.93;21.67;;;9.40;99.90;;;;;;5016962;28;20263;-78
2023/04/21 02:31:39;;;;;;;30.30;23.43;;;9.20;99.90;;;;;;5015086;28;20202;-77
2023/04/21 02:34:05;;;;;;;31.93;22.07;;;9.30;99.90;;;;;;5018921;28;20261;-79
2023/04/21 02:36:31;;;;;;;26.77;20.97;;;9.30;99.90;;;;;;5014289;28;20505;-78
2023/04/21 02:38:56;;;;;;;28.53;22.37;;;9.30;99.90;;;;;;5020082;28;20210;-78
2023/04/21 02:41:22;;;;;;;28.57;21.27;;;9.40;99.90;;;;;;5022351;28;20204;-77
2023/04/21 02:43:48;;;;;;;27.33;21.03;;;9.40;99.90;;;;;;5014218;28;20269;-78
2023/04/21 02:46:14;;;;;;;30.07;23.73;;;9.40;99.90;;;;;;5016484;28;20252;-78
2023/04/21 02:48:40;;;;;;;31.80;22.77;;;9.40;99.90;;;;;;5015390;28;20910;-79
2023/04/21 02:51:14;;;;;;;28.40;20.60;;;9.40;99.90;;;;;;5018375;28;20210;-78
2023/04/21 02:53:40;;;;;;;33.70;23.13;;;9.40;99.90;;;;;;5011638;28;20185;-78
2023/04/21 02:56:09;;;;;;;27.63;21.00;;;9.50;99.90;;;;;;5009023;28;20886;-77
2023/04/21 02:58:35;;;;;;;28.87;21.63;;;9.60;99.90;;;;;;5017323;28;20425;-77
2023/04/21 03:01:03;;;;;;;30.60;22.30;;;9.40;99.90;;;;;;5014647;28;20749;-77
2023/04/21 03:03:29;;;;;;;29.97;22.40;;;9.60;99.90;;;;;;5009832;28;20429;-78
2023/04/21 03:06:00;;;;;;;32.03;23.30;;;9.50;99.90;;;;;;5011400;28;21023;-77
2023/04/21 03:08:26;;;;;;;29.30;22.10;;;9.60;99.90;;;;;;5014869;28;20888;-78
2023/04/21 03:10:52;;;;;;;30.70;22.57;;;9.30;99.90;;;;;;5018614;28;20520;-78
2023/04/21 03:13:17;;;;;;;30.60;22.83;;;9.40;99.90;;;;;;4996975;28;20429;-77
2023/04/21 03:15:43;;;;;;;28.80;22.30;;;9.50;99.90;;;;;;5016752;28;20553;-78
2023/04/21 03:18:10;;;;;;;30.03;23.27;;;9.50;99.90;;;;;;5013871;28;20574;-78
2023/04/21 03:20:35;;;;;;;30.30;23.00;;;9.40;99.90;;;;;;5000774;28;20449;-77
2023/04/21 03:23:01;;;;;;;31.07;24.33;;;9.50;99.90;;;;;;5014839;28;20908;-77
2023/04/21 03:25:27;;;;;;;32.50;23.53;;;9.40;99.90;;;;;;5012233;28;20781;-78
2023/04/21 03:27:53;;;;;;;32.80;23.50;;;9.70;99.90;;;;;;5016132;28;20265;-78
2023/04/21 03:30:19;;;;;;;31.90;22.60;;;9.70;99.90;;;;;;5009833;28;20530;-78
2023/04/21 03:32:45;;;;;;;32.83;24.20;;;9.50;99.90;;;;;;5017203;28;20799;-78
2023/04/21 03:35:11;;;;;;;29.17;22.77;;;9.50;99.90;;;;;;5015886;28;20511;-78
2023/04/21 03:37:37;;;;;;;29.17;22.40;;;9.70;99.90;;;;;;5011423;28;20668;-78
2023/04/21 03:40:06;;;;;;;31.63;23.10;;;9.40;99.90;;;;;;5017033;28;20198;-76
2023/04/21 03:42:31;;;;;;;30.53;22.90;;;9.50;99.90;;;;;;5013604;28;20297;-78
2023/04/21 03:45:02;;;;;;;31.00;23.87;;;9.40;99.90;;;;;;5021503;28;21037;-78
2023/04/21 03:47:27;;;;;;;35.50;24.33;;;9.40;99.90;;;;;;5017888;28;20179;-78
2023/04/21 03:49:53;;;;;;;31.00;23.30;;;9.40;99.90;;;;;;5019537;28;20421;-78
2023/04/21 03:52:19;;;;;;;30.80;22.37;;;9.40;99.90;;;;;;5025503;28;20184;-77
2023/04/21 03:54:44;;;;;;;35.07;25.20;;;9.60;99.90;;;;;;5018930;28;20187;-76
2023/04/21 03:57:10;;;;;;;32.40;24.67;;;9.40;99.90;;;;;;5024898;28;20239;-77
2023/04/21 03:59:36;;;;;;;32.13;23.70;;;9.50;99.90;;;;;;5021443;28;20545;-78
2023/04/21 04:02:01;;;;;;;33.40;23.63;;;9.50;99.90;;;;;;5018042;28;20217;-78
2023/04/21 04:04:27;;;;;;;34.00;23.83;;;9.70;99.90;;;;;;5017473;28;20214;-78
2023/04/21 04:06:53;;;;;;;29.70;22.23;;;9.50;99.90;;;;;;5017886;28;20180;-77
2023/04/21 04:09:18;;;;;;;34.03;23.60;;;9.60;99.90;;;;;;5013130;28;20664;-78
2023/04/21 04:11:44;;;;;;;31.70;23.20;;;9.60;99.90;;;;;;5013673;28;20253;-78
2023/04/21 04:14:10;;;;;;;34.17;24.97;;;9.50;99.90;;;;;;5011817;28;20194;-78
2023/04/21 04:16:36;;;;;;;30.80;22.87;;;9.50;99.90;;;;;;4996169;28;20618;-76
2023/04/21 04:19:02;;;;;;;32.40;24.17;;;9.50;99.90;;;;;;5011938;28;20191;-76
2023/04/21 04:21:28;;;;;;;31.30;24.07;;;9.60;99.90;;;;;;5011987;28;21013;-77
2023/04/21 04:23:54;;;;;;;31.17;24.63;;;9.40;99.90;;;;;;5012608;28;20490;-78
2023/04/21 04:26:24;;;;;;;31.60;24.60;;;9.50;99.90;;;;;;5013390;28;20417;-78
2023/04/21 04:28:50;;;;;;;30.60;23.87;;;9.60;99.90;;;;;;5013036;28;20425;-78
2023/04/21 04:31:16;;;;;;;34.87;25.60;;;9.60;99.90;;;;;;5012985;28;20449;-78
2023/04/21 04:33:42;;;;;;;30.60;23.73;;;9.70;99.90;;;;;;5027858;28;20810;-78
2023/04/21 04:36:10;;;;;;;35.50;25.00;;;9.50;99.90;;;;;;5012626;28;20418;-77
2023/04/21 04:38:36;;;;;;;30.47;22.67;;;9.50;99.90;;;;;;5028025;28;20537;-77
2023/04/21 04:41:03;;;;;;;33.20;24.20;;;9.70;99.90;;;;;;5027982;28;20894;-78
2023/04/21 04:43:32;;;;;;;34.37;24.60;;;9.60;99.90;;;;;;5011252;28;20433;-78
2023/04/21 04:46:04;;;;;;;32.30;24.83;;;9.50;99.90;;;;;;5012942;28;20815;-78
2023/04/21 04:48:30;;;;;;;31.37;23.33;;;9.60;99.90;;;;;;5012778;28;20441;-78
2023/04/21 04:50:55;;;;;;;32.33;23.93;;;9.60;99.90;;;;;;5010392;28;20482;-78
2023/04/21 04:53:21;;;;;;;31.90;23.47;;;9.60;99.90;;;;;;5006481;28;20482;-80
2023/04/21 04:55:47;;;;;;;30.50;24.20;;;9.50;99.90;;;;;;5005026;28;20233;-77
2023/04/21 04:58:13;;;;;;;30.57;23.53;;;9.50;99.90;;;;;;5004354;28;20240;-80
2023/04/21 05:00:38;;;;;;;32.77;24.33;;;9.50;99.90;;;;;;5006471;28;20206;-79
2023/04/21 05:03:04;;;;;;;35.23;26.10;;;9.60;99.90;;;;;;5007002;28;20187;-79
2023/04/21 05:05:30;;;;;;;29.93;23.07;;;9.60;99.90;;;;;;5011275;28;20755;-77
2023/04/21 05:07:56;;;;;;;32.30;24.27;;;9.60;99.90;;;;;;4995521;28;20180;-78
2023/04/21 05:10:22;;;;;;;30.10;22.77;;;9.70;99.90;;;;;;4992520;28;20200;-77
2023/04/21 05:12:48;;;;;;;33.80;25.23;;;9.50;99.90;;;;;;5004239;28;20430;-77
2023/04/21 05:15:14;;;;;;;36.90;26.67;;;9.50;99.90;;;;;;5026912;28;20426;-75
2023/04/21 05:17:39;;;;;;;32.93;23.90;;;9.60;99.90;;;;;;5025140;28;20430;-75
2023/04/21 05:20:06;;;;;;;34.10;26.40;;;9.40;99.90;;;;;;5010882;28;20191;-79
2023/04/21 05:22:41;;;;;;;39.80;25.33;;;9.50;99.90;;;;;;4996096;28;20192;-78
2023/04/21 05:25:09;;;;;;;34.07;25.40;;;9.50;99.90;;;;;;4992437;28;20846;-78
2023/04/21 05:27:34;;;;;;;33.87;24.93;;;9.50;99.90;;;;;;5004444;28;20410;-79
2023/04/21 05:30:00;;;;;;;37.20;26.73;;;9.40;99.90;;;;;;5005457;28;20427;-78
2023/04/21 05:32:26;;;;;;;37.23;26.73;;;9.50;99.90;;;;;;4992129;28;20577;-77
2023/04/21 05:34:51;;;;;;;36.17;25.87;;;9.40;99.90;;;;;;4992481;28;20182;-79
2023/04/21 05:37:17;;;;;;;35.90;25.90;;;9.40;99.90;;;;;;4992384;28;20661;-78
2023/04/21 05:39:43;;;;;;;34.60;25.60;;;9.40;99.90;;;;;;4992090;28;20549;-77
2023/04/21 05:42:10;;;;;;;33.10;25.40;;;9.40;99.90;;;;;;5002047;28;20683;-77
2023/04/21 05:44:36;;;;;;;37.30;26.50;;;9.40;99.90;;;;;;5004670;28;20212;-78
2023/04/21 05:47:04;;;;;;;34.87;25.53;;;9.40;99.90;;;;;;5011693;28;20425;-78
2023/04/21 05:49:29;;;;;;;36.40;25.90;;;9.50;99.90;;;;;;5011401;28;20450;-79
2023/04/21 05:51:55;;;;;;;31.97;24.80;;;9.50;99.90;;;;;;4990804;28;20539;-78
2023/04/21 05:54:21;;;;;;;39.73;25.00;;;9.50;99.90;;;;;;5002289;28;20263;-77
2023/04/21 05:56:47;;;;;;;35.17;25.70;;;9.60;99.90;;;;;;5002845;28;20194;-78
2023/04/21 05:59:13;;;;;;;35.10;25.87;;;9.70;99.90;;;;;;5011071;28;20262;-78
2023/04/21 06:01:38;;;;;;;33.53;26.40;;;9.70;99.90;;;;;;5009150;28;20537;-78
2023/04/21 06:04:04;;;;;;;34.77;26.63;;;9.90;99.90;;;;;;5010333;28;20465;-77
2023/04/21 06:06:30;;;;;;;36.70;25.40;;;9.70;99.90;;;;;;5007057;28;20536;-78
2023/04/21 06:08:56;;;;;;;39.13;26.87;;;9.70;99.90;;;;;;5003341;28;20263;-78
2023/04/21 06:11:22;;;;;;;36.40;25.63;;;9.90;99.90;;;;;;5003254;28;20864;-76
2023/04/21 06:13:48;;;;;;;32.80;25.50;;;9.80;99.90;;;;;;5026303;28;20183;-79
2023/04/21 06:16:14;;;;;;;35.40;26.27;;;9.80;99.90;;;;;;5011150;28;20406;-79
2023/04/21 06:18:40;;;;;;;37.83;26.90;;;9.90;99.90;;;;;;5026181;28;20476;-78
2023/04/21 06:21:05;;;;;;;35.57;26.60;;;9.90;99.90;;;;;;5010758;28;20242;-78
2023/04/21 06:23:31;;;;;;;34.10;25.57;;;9.90;99.90;;;;;;5010700;28;20177;-79
2023/04/21 06:26:05;;;;;;;34.10;26.47;;;9.90;99.90;;;;;;5010780;28;20178;-79
2023/04/21 06:28:32;;;;;;;37.53;26.97;;;10.00;99.90;;;;;;5010467;28;20179;-79
2023/04/21 06:30:59;;;;;;;32.40;25.00;;;10.00;99.90;;;;;;4996573;28;20496;-77
2023/04/21 06:33:25;;;;;;;37.57;27.40;;;10.00;99.90;;;;;;5019606;28;20479;-78
2023/04/21 06:35:51;;;;;;;35.67;27.27;;;10.00;99.90;;;;;;5014220;28;20479;-79
2023/04/21 06:38:17;;;;;;;36.67;26.90;;;10.00;99.90;;;;;;5011300;28;20454;-79
2023/04/21 06:40:43;;;;;;;32.83;26.23;;;10.10;99.90;;;;;;5011757;28;20445;-78
2023/04/21 06:43:09;;;;;;;38.90;27.30;;;10.10;99.90;;;;;;5009879;28;20186;-77
2023/04/21 06:45:34;;;;;;;38.13;28.60;;;10.30;99.90;;;;;;5009834;28;20831;-78
2023/04/21 06:48:00;;;;;;;37.17;27.17;;;10.10;99.90;;;;;;5010121;28;20265;-79
2023/04/21 06:50:26;;;;;;;35.10;27.30;;;10.20;99.90;;;;;;5009618;28;20683;-79
2023/04/21 06:52:51;;;;;;;37.17;26.37;;;10.20;99.90;;;;;;5010035;28;20547;-78
2023/04/21 06:55:17;;;;;;;36.70;27.47;;;10.30;99.90;;;;;;5009646;28;20171;-78
2023/04/21 06:57:43;;;;;;;36.17;27.73;;;10.10;99.90;;;;;;5025080;28;20194;-78
2023/04/21 07:00:09;;;;;;;41.53;30.50;;;10.10;99.90;;;;;;5009999;28;20183;-79
2023/04/21 07:02:34;;;;;;;37.50;28.07;;;10.30;99.90;;;;;;5012122;28;20187;-79
2023/04/21 07:05:00;;;;;;;37.13;28.80;;;10.30;99.90;;;;;;5005274;28;20524;-79
2023/04/21 07:07:26;;;;;;;37.70;28.20;;;10.30;99.90;;;;;;5000366;28;20183;-78
2023/04/21 07:09:51;;;;;;;36.43;27.53;;;10.30;99.90;;;;;;5008833;28;20273;-77
2023/04/21 07:12:17;;;;;;;35.33;29.00;;;10.40;99.90;;;;;;5010099;28;20183;-79
2023/04/21 07:14:43;;;;;;;39.13;29.27;;;10.40;99.90;;;;;;5011839;28;20242;-79
2023/04/21 07:17:08;;;;;;;37.43;29.00;;;10.40;99.90;;;;;;5013963;28;20179;-78
2023/04/21 07:19:34;;;;;;;41.40;27.70;;;10.50;99.90;;;;;;5012809;28;20959;-78
2023/04/21 07:22:00;;;;;;;37.50;27.93;;;10.50;99.90;;;;;;5014393;28;20905;-78
2023/04/21 07:24:25;;;;;;;40.00;28.83;;;10.50;99.90;;;;;;4996169;28;20664;-77
2023/04/21 07:26:51;;;;;;;36.57;27.70;;;10.60;99.90;;;;;;5011997;28;20186;-78
2023/04/21 07:29:17;;;;;;;41.40;29.20;;;10.60;99.90;;;;;;4996640;28;20183;-76
2023/04/21 07:31:42;;;;;;;39.07;29.60;;;10.60;99.90;;;;;;5014240;28;20273;-78
2023/04/21 07:34:08;;;;;;;37.67;29.47;;;10.60;99.90;;;;;;5012912;28;20183;-78
2023/04/21 07:36:34;;;;;;;43.03;31.40;;;10.70;99.90;;;;;;5013761;28;20321;-78
2023/04/21 07:39:00;;;;;;;37.37;29.90;;;10.70;99.90;;;;;;5012513;28;20217;-78
2023/04/21 07:41:26;;;;;;;34.13;26.63;;;10.80;99.90;;;;;;5013349;28;20528;-78
2023/04/21 07:43:52;;;;;;;34.93;25.90;;;10.80;99.90;;;;;;5028836;28;20255;-77
2023/04/21 07:46:18;;;;;;;36.20;28.30;;;10.90;99.90;;;;;;5024095;28;20423;-79
2023/04/21 07:48:45;;;;;;;36.30;29.03;;;10.90;99.90;;;;;;5008591;28;20225;-78
2023/04/21 07:51:10;;;;;;;34.20;27.77;;;11.00;99.90;;;;;;4993809;28;20279;-77
2023/04/21 07:53:36;;;;;;;33.97;26.53;;;11.00;99.90;;;;;;4994021;28;20497;-78
2023/04/21 07:56:02;;;;;;;32.47;27.30;;;11.00;99.90;;;;;;4999313;28;20187;-78
2023/04/21 07:58:27;;;;;;;33.97;27.60;;;11.00;99.90;;;;;;5007347;28;20179;-78
2023/04/21 08:00:53;;;;;;;36.53;29.07;;;11.10;99.90;;;;;;5011776;28;20234;-78
2023/04/21 08:03:19;;;;;;;36.23;27.40;;;11.00;99.90;;;;;;5013457;28;20206;-79
2023/04/21 08:05:45;;;;;;;36.30;27.20;;;11.00;99.90;;;;;;5028358;28;20777;-77
2023/04/21 08:08:10;;;;;;;35.10;28.03;;;11.10;99.90;;;;;;5012682;28;20418;-78
2023/04/21 08:10:36;;;;;;;37.27;27.30;;;11.10;99.90;;;;;;5013134;28;20286;-77
2023/04/21 08:13:05;;;;;;;35.03;27.70;;;11.10;99.90;;;;;;5013005;28;20179;-75
2023/04/21 08:15:31;;;;;;;34.40;28.00;;;11.10;99.90;;;;;;5013133;28;20217;-78
2023/04/21 08:17:57;;;;;;;32.73;25.80;;;11.20;99.90;;;;;;5013257;28;20414;-78
2023/04/21 08:20:22;;;;;;;33.33;26.00;;;11.10;99.90;;;;;;5012872;28;20492;-77
2023/04/21 08:22:48;;;;;;;35.13;26.50;;;11.20;99.90;;;;;;5012914;28;20781;-79
2023/04/21 08:25:13;;;;;;;33.00;26.33;;;11.20;99.90;;;;;;5012212;28;20211;-77
2023/04/21 08:27:39;;;;;;;32.63;26.20;;;11.20;99.90;;;;;;5013103;28;20190;-79
2023/04/21 08:30:06;;;;;;;33.50;26.27;;;11.30;99.90;;;;;;4995311;28;20187;-79
2023/04/21 08:32:31;;;;;;;30.90;25.90;;;11.30;99.90;;;;;;5013293;28;20564;-77
2023/04/21 08:34:57;;;;;;;33.43;26.83;;;11.30;99.90;;;;;;5012649;28;20457;-78
2023/04/21 08:37:23;;;;;;;36.20;25.80;;;11.30;99.90;;;;;;5011355;28;20237;-77
2023/04/21 08:39:49;;;;;;;32.83;27.40;;;11.30;99.90;;;;;;5027940;28;20221;-78
2023/04/21 08:42:19;;;;;;;30.80;25.93;;;11.40;99.90;;;;;;4995312;28;20211;-78
2023/04/21 08:44:45;;;;;;;33.13;26.13;;;11.30;99.90;;;;;;4991367;28;20462;-78
2023/04/21 08:47:11;;;;;;;34.30;26.90;;;11.40;99.90;;;;;;4993282;28;20415;-78
2023/04/21 08:49:38;;;;;;;35.67;28.17;;;11.40;99.90;;;;;;4993209;28;20495;-78
2023/04/21 08:52:05;;;;;;;35.73;28.00;;;11.40;99.90;;;;;;4992048;28;20493;-77
2023/04/21 08:54:31;;;;;;;32.90;26.17;;;11.40;99.90;;;;;;4992845;28;20407;-79
2023/04/21 08:56:57;;;;;;;34.27;27.87;;;11.40;99.90;;;;;;4992971;28;20775;-79
2023/04/21 08:59:23;;;;;;;36.20;28.23;;;11.40;99.90;;;;;;5008251;28;20406;-78
2023/04/21 09:02:12;;;;;;;33.70;27.03;;;11.40;99.90;;;;;;4991898;28;20679;-77
2023/04/21 09:04:39;;;;;;;32.40;26.70;;;11.40;99.90;;;;;;4992921;28;20254;-78
2023/04/21 09:07:05;;;;;;;39.30;29.63;;;11.40;99.90;;;;;;4993002;28;20418;-77
2023/04/21 09:09:30;;;;;;;36.80;28.17;;;11.40;99.90;;;;;;5011467;28;20407;-79
2023/04/21 09:12:00;;;;;;;33.00;27.00;;;11.50;99.90;;;;;;4992702;28;20218;-76
2023/04/21 09:14:33;;;;;;;35.57;28.63;;;11.50;99.90;;;;;;4993012;28;20203;-77
2023/04/21 09:17:01;;;;;;;32.67;26.30;;;11.50;99.90;;;;;;4992789;28;20458;-78
2023/04/21 09:19:33;;;;;;;33.97;26.30;;;11.50;99.90;;;;;;4993100;28;20407;-78
2023/04/21 09:22:02;;;;;;;33.27;26.20;;;11.60;99.90;;;;;;4992468;28;20431;-78
2023/04/21 09:24:29;;;;;;;31.77;27.07;;;11.60;99.90;;;;;;4992825;28;20458;-79
2023/04/21 09:26:55;;;;;;;36.33;28.07;;;11.60;99.90;;;;;;4992709;28;20407;-78
2023/04/21 09:29:24;;;;;;;37.37;29.20;;;11.60;99.90;;;;;;4991020;28;20936;-78
2023/04/21 09:31:51;;;;;;;37.17;27.67;;;11.70;99.90;;;;;;5007299;28;20228;-79
2023/04/21 09:34:23;;;;;;;34.10;27.53;;;11.60;99.90;;;;;;4975501;28;20806;-78
2023/04/21 09:37:00;;;;;;;32.17;27.17;;;11.70;99.90;;;;;;4991847;28;20988;-78
2023/04/21 09:39:27;;;;;;;32.63;26.23;;;11.70;99.90;;;;;;5007475;28;21116;-79
2023/04/21 09:41:53;;;;;;;38.67;28.03;;;11.70;99.90;;;;;;5006451;28;20434;-79
2023/04/21 09:44:18;;;;;;;33.70;26.10;;;11.80;99.90;;;;;;5011455;28;20990;-79
2023/04/21 09:46:48;;;;;;;34.10;27.07;;;11.70;99.90;;;;;;5011025;28;20180;-79
2023/04/21 09:49:17;;;;;;;33.87;26.97;;;11.80;99.90;;;;;;5012160;28;20198;-78
2023/04/21 09:51:43;;;;;;;34.97;26.87;;;11.80;99.90;;;;;;5011859;28;20535;-79
2023/04/21 09:54:19;;;;;;;34.60;27.30;;;11.80;99.90;;;;;;5011178;28;20406;-78
2023/04/21 09:56:51;;;;;;;32.60;27.27;;;11.80;99.90;;;;;;5011862;28;20856;-79
2023/04/21 09:59:21;;;;;;;37.30;27.43;;;11.80;99.90;;;;;;5027006;28;20907;-79
2023/04/21 10:01:49;;;;;;;31.73;26.77;;;11.80;99.90;;;;;;5011528;28;20485;-78
2023/04/21 10:04:16;;;;;;;32.30;26.50;;;11.80;99.90;;;;;;5011451;28;20493;-77
2023/04/21 10:06:42;;;;;;;32.03;26.70;;;11.90;99.90;;;;;;5012004;28;20414;-79
2023/04/21 10:09:10;;;;;;;33.70;27.10;;;11.80;99.90;;;;;;5010990;28;20406;-78
2023/04/21 10:11:36;;;;;;;30.90;24.50;;;11.80;99.90;;;;;;5011284;28;20440;-78
2023/04/21 10:14:03;;;;;;;30.87;25.87;;;11.70;99.90;;;;;;5010762;28;20518;-79
2023/04/21 10:16:28;;;;;;;33.60;26.10;;;11.70;99.90;;;;;;5011536;28;20414;-78
2023/04/21 10:18:54;;;;;;;31.73;26.30;;;11.80;99.90;;;;;;5026469;28;20874;-79
2023/04/21 10:21:21;;;;;;;35.60;27.30;;;11.80;99.90;;;;;;5026300;28;20572;-78
2023/04/21 10:23:47;;;;;;;35.17;27.73;;;11.90;99.90;;;;;;5026408;28;20529;-79
2023/04/21 10:26:33;;;;;;;32.83;26.33;;;11.90;99.90;;;;;;5011655;28;20418;-78
2023/04/21 10:29:08;;;;;;;32.57;26.57;;;12.00;99.90;;;;;;5010815;28;20478;-77
2023/04/21 10:31:50;;;;;;;33.17;26.87;;;12.00;99.90;;;;;;5026307;28;20473;-78
2023/04/21 10:34:20;;;;;;;34.47;27.83;;;12.10;99.90;;;;;;5026025;28;20449;-79
2023/04/21 10:37:10;;;;;;;36.67;28.40;;;12.10;99.90;;;;;;5026528;28;20425;-76
2023/04/21 10:39:43;;;;;;;33.77;26.63;;;12.10;99.90;;;;;;5007957;28;20531;-78
2023/04/21 10:42:12;;;;;;;32.93;26.10;;;12.10;99.90;;;;;;5009508;28;20451;-77
2023/04/21 10:44:58;;;;;;;33.83;26.87;;;12.10;99.90;;;;;;4991201;28;20462;-77
2023/04/21 10:47:47;;;;;;;36.40;26.70;;;12.10;99.90;;;;;;4991030;28;20419;-78
2023/04/21 10:50:20;;;;;;;28.77;25.67;;;12.10;99.90;;;;;;4991206;28;20446;-79
2023/04/21 10:53:08;;;;;;;35.47;27.07;;;12.10;99.90;;;;;;4991187;28;20419;-78
2023/04/21 10:55:34;;;;;;;30.67;24.47;;;12.10;99.90;;;;;;4986695;28;20431;-78
2023/04/21 10:58:06;;;;;;;28.97;24.00;;;12.10;99.90;;;;;;4990041;28;20419;-78
2023/04/21 11:00:32;;;;;;;29.70;24.83;;;12.20;99.90;;;;;;4991261;28;20427;-79
2023/04/21 11:03:03;;;;;;;29.27;22.97;;;12.20;99.90;;;;;;4990121;28;20422;-77
2023/04/21 11:05:35;;;;;;;29.83;25.17;;;12.20;99.90;;;;;;4991469;28;20458;-78
2023/04/21 11:08:02;;;;;;;34.47;25.40;;;12.20;99.90;;;;;;4991387;28;20423;-79
2023/04/21 11:10:28;;;;;;;29.40;24.00;;;12.30;99.90;;;;;;4990837;28;20524;-79
2023/04/21 11:12:56;;;;;;;31.67;25.80;;;12.40;99.90;;;;;;4991518;28;20912;-79
2023/04/21 11:15:22;;;;;;;33.00;25.27;;;12.40;99.90;;;;;;4991040;28;20184;-79
2023/04/21 11:17:48;;;;;;;29.30;23.83;;;12.50;99.90;;;;;;4991366;28;20761;-79
2023/04/21 11:20:14;;;;;;;29.67;24.47;;;12.50;99.90;;;;;;4990000;28;20208;-79
2023/04/21 11:22:40;;;;;;;29.83;23.90;;;12.60;99.90;;;;;;4989793;28;20422;-78
2023/04/21 11:25:16;;;;;;;32.00;25.37;;;12.60;99.90;;;;;;4990882;28;20254;-79
2023/04/21 11:27:51;;;;;;;29.90;24.40;;;12.70;99.90;;;;;;4991186;28;20183;-79
2023/04/21 11:30:17;;;;;;;29.13;22.87;;;12.80;99.90;;;;;;4990882;28;20438;-79
2023/04/21 11:32:42;;;;;;;25.57;21.53;;;12.90;99.90;;;;;;4989755;28;20469;-78
2023/04/21 11:35:08;;;;;;;28.10;22.40;;;13.00;99.90;;;;;;4991522;28;20195;-79
2023/04/21 11:37:35;;;;;;;27.80;21.97;;;13.10;99.90;;;;;;4992628;28;20254;-77
2023/04/21 11:40:02;;;;;;;29.90;22.40;;;13.20;99.90;;;;;;4991742;28;20179;-79
2023/04/21 11:42:27;;;;;;;28.73;22.60;;;13.30;99.90;;;;;;5009392;28;20517;-78
2023/04/21 11:44:57;;;;;;;28.10;21.77;;;13.40;99.90;;;;;;5007822;28;20556;-79
2023/04/21 11:47:27;;;;;;;23.47;19.70;;;13.30;99.90;;;;;;5008237;28;20184;-79
2023/04/21 11:49:58;;;;;;;25.93;21.37;;;13.30;99.90;;;;;;5024604;28;20430;-76
2023/04/21 11:52:27;;;;;;;23.83;19.70;;;13.30;99.90;;;;;;5024761;28;20418;-79
2023/04/21 11:54:58;;;;;;;24.70;19.83;;;13.30;99.90;;;;;;5024533;28;20513;-79
2023/04/21 11:57:25;;;;;;;24.77;20.40;;;13.30;99.90;;;;;;5009686;28;20456;-79
2023/04/21 11:59:51;;;;;;;28.50;21.23;;;13.30;99.90;;;;;;5010003;28;20459;-78
2023/04/21 12:02:25;;;;;;;24.83;21.07;;;13.30;99.90;;;;;;5028650;28;20823;-78
2023/04/21 12:05:10;;;;;;;23.30;20.20;;;13.30;99.90;;;;;;5012768;28;20492;-77
2023/04/21 12:07:37;;;;;;;28.07;22.10;;;13.40;99.90;;;;;;5012985;28;20468;-78
2023/04/21 12:10:10;;;;;;;27.97;21.40;;;13.30;99.90;;;;;;5012204;28;20425;-77
2023/04/21 12:12:40;;;;;;;28.20;22.80;;;13.40;99.90;;;;;;5013216;28;20445;-79
2023/04/21 12:15:07;;;;;;;26.50;21.97;;;13.40;99.90;;;;;;5028171;28;20426;-78
2023/04/21 12:17:59;;;;;;;24.90;20.93;;;13.40;99.90;;;;;;5013321;28;20410;-76
2023/04/21 12:20:28;;;;;;;25.63;21.60;;;13.40;99.90;;;;;;5009693;28;21035;-77
2023/04/21 12:22:55;;;;;;;23.83;20.97;;;13.40;99.90;;;;;;5011733;28;20417;-78
2023/04/21 12:25:21;;;;;;;25.60;21.90;;;13.50;99.90;;;;;;5011928;28;20466;-79
2023/04/21 12:27:51;;;;;;;27.00;22.53;;;13.50;99.90;;;;;;5028160;28;20986;-79
2023/04/21 12:30:17;;;;;;;27.47;22.37;;;13.50;99.90;;;;;;5027834;28;20252;-79
2023/04/21 12:32:43;;;;;;;23.53;21.03;;;13.70;99.90;;;;;;5013276;28;20414;-79